QFA486 YMML-YSSY
Flight info
| Callsign | QFA486 |
|---|---|
| Flight time | 1h 0m |
| Altitude | 37000 |
| Route | DOSEL2 Y59 RIVET4 |
| Aircraft | A32N/M-V/N |
Departure
| Time | 2026-04-24 11:24 |
|---|---|
| Airport | Melbourne Airport (YMML) |
Arrival
| Time | 2026-04-24 12:24 |
|---|---|
| Airport | Sydney Kingsford Smith International Airport (YSSY) |
| Time | Latitude | Longitude | Altitude | Speed | Heading |
|---|---|---|---|---|---|
| 2026-04-24 11:10 | -37.66628 | 144.84953 | 408 ft | 0 kts | 222° |
| 2026-04-24 11:15 | -37.66623 | 144.84959 | 408 ft | 3 kts | 222° |
| 2026-04-24 11:16 | -37.66603 | 144.84982 | 408 ft | 3 kts | 221° |
| 2026-04-24 11:16 | -37.66584 | 144.85004 | 409 ft | 2 kts | 221° |
| 2026-04-24 11:16 | -37.66583 | 144.85004 | 409 ft | 0 kts | 221° |
| 2026-04-24 11:20 | -37.66584 | 144.85004 | 409 ft | 0 kts | 225° |
| 2026-04-24 11:20 | -37.66584 | 144.84993 | 409 ft | 3 kts | 274° |
| 2026-04-24 11:20 | -37.66579 | 144.84926 | 407 ft | 11 kts | 269° |
| 2026-04-24 11:20 | -37.66608 | 144.84802 | 405 ft | 17 kts | 245° |
| 2026-04-24 11:21 | -37.66648 | 144.84645 | 399 ft | 20 kts | 261° |
| 2026-04-24 11:21 | -37.66669 | 144.84454 | 395 ft | 22 kts | 263° |
| 2026-04-24 11:21 | -37.66692 | 144.84250 | 392 ft | 23 kts | 262° |
| 2026-04-24 11:21 | -37.66723 | 144.84052 | 393 ft | 22 kts | 255° |
| 2026-04-24 11:22 | -37.66835 | 144.83993 | 389 ft | 19 kts | 176° |
| 2026-04-24 11:22 | -37.66978 | 144.84018 | 386 ft | 21 kts | 170° |
| 2026-04-24 11:22 | -37.67133 | 144.84049 | 382 ft | 23 kts | 171° |
| 2026-04-24 11:22 | -37.67303 | 144.84080 | 377 ft | 25 kts | 171° |
| 2026-04-24 11:23 | -37.67480 | 144.84114 | 373 ft | 26 kts | 171° |
| 2026-04-24 11:23 | -37.67663 | 144.84149 | 369 ft | 26 kts | 172° |
| 2026-04-24 11:23 | -37.67808 | 144.84175 | 364 ft | 18 kts | 179° |
| 2026-04-24 11:23 | -37.67869 | 144.84062 | 359 ft | 19 kts | 281° |
| 2026-04-24 11:24 | -37.67765 | 144.83948 | 361 ft | 27 kts | 351° |
| 2026-04-24 11:24 | -37.67372 | 144.83879 | 373 ft | 94 kts | 352° |
| 2026-04-24 11:24 | -37.66509 | 144.83717 | 490 ft | 145 kts | 352° |
| 2026-04-24 11:24 | -37.65535 | 144.83528 | 1159 ft | 144 kts | 352° |
| 2026-04-24 11:25 | -37.64554 | 144.83344 | 1928 ft | 145 kts | 352° |
| 2026-04-24 11:25 | -37.63563 | 144.83159 | 2533 ft | 154 kts | 352° |
| 2026-04-24 11:25 | -37.62442 | 144.82947 | 3046 ft | 172 kts | 351° |
| 2026-04-24 11:25 | -37.61194 | 144.82707 | 3551 ft | 193 kts | 351° |
| 2026-04-24 11:26 | -37.59803 | 144.82481 | 4076 ft | 214 kts | 359° |
| 2026-04-24 11:26 | -37.58256 | 144.82822 | 4684 ft | 236 kts | 19° |
| 2026-04-24 11:26 | -37.56717 | 144.83705 | 5344 ft | 253 kts | 23° |
| 2026-04-24 11:26 | -37.55134 | 144.84682 | 6180 ft | 261 kts | 24° |
| 2026-04-24 11:27 | -37.53491 | 144.85698 | 7105 ft | 266 kts | 24° |
| 2026-04-24 11:27 | -37.51847 | 144.86708 | 8033 ft | 269 kts | 24° |
| 2026-04-24 11:27 | -37.50159 | 144.87738 | 8937 ft | 273 kts | 24° |
| 2026-04-24 11:27 | -37.48451 | 144.88777 | 9811 ft | 276 kts | 24° |
| 2026-04-24 11:28 | -37.46714 | 144.89830 | 10577 ft | 283 kts | 24° |
| 2026-04-24 11:28 | -37.44933 | 144.90997 | 11037 ft | 301 kts | 31° |
| 2026-04-24 11:28 | -37.43220 | 144.92712 | 11448 ft | 323 kts | 43° |
| 2026-04-24 11:28 | -37.41753 | 144.94937 | 11831 ft | 343 kts | 52° |
| 2026-04-24 11:29 | -37.40343 | 144.97418 | 12180 ft | 361 kts | 53° |
| 2026-04-24 11:29 | -37.38879 | 145.00044 | 12609 ft | 375 kts | 53° |
| 2026-04-24 11:29 | -37.37372 | 145.02747 | 13289 ft | 380 kts | 53° |
| 2026-04-24 11:29 | -37.35846 | 145.05467 | 13945 ft | 385 kts | 53° |
| 2026-04-24 11:30 | -37.34301 | 145.08212 | 14621 ft | 390 kts | 53° |
| 2026-04-24 11:30 | -37.32718 | 145.11015 | 15318 ft | 393 kts | 53° |
| 2026-04-24 11:30 | -37.31139 | 145.13808 | 15976 ft | 397 kts | 53° |
| 2026-04-24 11:30 | -37.29548 | 145.16617 | 16618 ft | 400 kts | 53° |
| 2026-04-24 11:31 | -37.27911 | 145.19499 | 17249 ft | 404 kts | 53° |
| 2026-04-24 11:31 | -37.26297 | 145.22343 | 17853 ft | 407 kts | 54° |
| 2026-04-24 11:31 | -37.24647 | 145.25247 | 18447 ft | 411 kts | 53° |
| 2026-04-24 11:31 | -37.22986 | 145.28168 | 19009 ft | 414 kts | 53° |
| 2026-04-24 11:32 | -37.21311 | 145.31110 | 19545 ft | 418 kts | 53° |
| 2026-04-24 11:32 | -37.19621 | 145.34071 | 20071 ft | 422 kts | 53° |
| 2026-04-24 11:32 | -37.17889 | 145.37108 | 20593 ft | 426 kts | 53° |
| 2026-04-24 11:32 | -37.16167 | 145.40122 | 21103 ft | 430 kts | 53° |
| 2026-04-24 11:33 | -37.14422 | 145.43164 | 21608 ft | 434 kts | 53° |
| 2026-04-24 11:33 | -37.12666 | 145.46228 | 22107 ft | 437 kts | 53° |
| 2026-04-24 11:33 | -37.10878 | 145.49342 | 22588 ft | 441 kts | 53° |
| 2026-04-24 11:33 | -37.09093 | 145.52447 | 23064 ft | 444 kts | 53° |
| 2026-04-24 11:34 | -37.07282 | 145.55597 | 23534 ft | 448 kts | 53° |
| 2026-04-24 11:34 | -37.05461 | 145.58758 | 24002 ft | 451 kts | 53° |
| 2026-04-24 11:34 | -37.03636 | 145.61928 | 24476 ft | 454 kts | 53° |
| 2026-04-24 11:34 | -37.01788 | 145.65134 | 24921 ft | 457 kts | 53° |
| 2026-04-24 11:35 | -36.99901 | 145.68404 | 25361 ft | 461 kts | 53° |
| 2026-04-24 11:35 | -36.98018 | 145.71664 | 25773 ft | 464 kts | 53° |
| 2026-04-24 11:35 | -36.96148 | 145.74901 | 26173 ft | 467 kts | 53° |
| 2026-04-24 11:35 | -36.89988 | 145.85532 | 27328 ft | 470 kts | 54° |
| 2026-04-24 11:36 | -36.82274 | 145.98795 | 28423 ft | 475 kts | 54° |
| 2026-04-24 11:36 | -36.75255 | 146.10822 | 29766 ft | 475 kts | 54° |
| 2026-04-24 11:36 | -36.73342 | 146.14098 | 30184 ft | 474 kts | 54° |
| 2026-04-24 11:36 | -36.71395 | 146.17432 | 30565 ft | 473 kts | 54° |
| 2026-04-24 11:37 | -36.69477 | 146.20711 | 30919 ft | 473 kts | 54° |
| 2026-04-24 11:37 | -36.67527 | 146.24042 | 31305 ft | 472 kts | 54° |
| 2026-04-24 11:37 | -36.65616 | 146.27298 | 31661 ft | 471 kts | 54° |
| 2026-04-24 11:37 | -36.63700 | 146.30560 | 31986 ft | 470 kts | 54° |
| 2026-04-24 11:38 | -36.61752 | 146.33872 | 32323 ft | 470 kts | 54° |
| 2026-04-24 11:38 | -36.59826 | 146.37143 | 32677 ft | 468 kts | 54° |
| 2026-04-24 11:38 | -36.57914 | 146.40390 | 32995 ft | 468 kts | 54° |
| 2026-04-24 11:38 | -36.55993 | 146.43646 | 33295 ft | 468 kts | 54° |
| 2026-04-24 11:39 | -36.54086 | 146.46876 | 33602 ft | 467 kts | 55° |
| 2026-04-24 11:39 | -36.52162 | 146.50133 | 33923 ft | 466 kts | 55° |
| 2026-04-24 11:39 | -36.50270 | 146.53332 | 34252 ft | 465 kts | 54° |
| 2026-04-24 11:39 | -36.48352 | 146.56572 | 34603 ft | 464 kts | 54° |
| 2026-04-24 11:40 | -36.46453 | 146.59776 | 34937 ft | 463 kts | 54° |
| 2026-04-24 11:40 | -36.44543 | 146.62997 | 35254 ft | 463 kts | 54° |
| 2026-04-24 11:40 | -36.42632 | 146.66217 | 35584 ft | 462 kts | 54° |
| 2026-04-24 11:40 | -36.40728 | 146.69423 | 35883 ft | 461 kts | 54° |
| 2026-04-24 11:41 | -36.38828 | 146.72617 | 36121 ft | 461 kts | 54° |
| 2026-04-24 11:41 | -36.36929 | 146.75806 | 36311 ft | 462 kts | 54° |
| 2026-04-24 11:41 | -36.35032 | 146.78987 | 36506 ft | 463 kts | 54° |
| 2026-04-24 11:41 | -36.33104 | 146.82219 | 36693 ft | 464 kts | 54° |
| 2026-04-24 11:42 | -36.31182 | 146.85440 | 36884 ft | 464 kts | 54° |
| 2026-04-24 11:42 | -36.29271 | 146.88638 | 37061 ft | 465 kts | 54° |
| 2026-04-24 11:42 | -36.27345 | 146.91858 | 37218 ft | 465 kts | 54° |
| 2026-04-24 11:42 | -36.25436 | 146.95048 | 37348 ft | 466 kts | 54° |
| 2026-04-24 11:43 | -36.23504 | 146.98273 | 37453 ft | 467 kts | 54° |
| 2026-04-24 11:43 | -36.21564 | 147.01506 | 37455 ft | 468 kts | 54° |
| 2026-04-24 11:43 | -36.17713 | 147.07916 | 37459 ft | 468 kts | 54° |
| 2026-04-24 11:44 | -36.13770 | 147.14461 | 37456 ft | 467 kts | 54° |
| 2026-04-24 11:44 | -35.95268 | 147.45013 | 37467 ft | 468 kts | 54° |
| 2026-04-24 11:45 | -35.91393 | 147.51395 | 37465 ft | 468 kts | 54° |
| 2026-04-24 11:45 | -35.87484 | 147.57814 | 37467 ft | 468 kts | 55° |
| 2026-04-24 11:46 | -35.83584 | 147.64201 | 37469 ft | 468 kts | 55° |
| 2026-04-24 11:46 | -35.79682 | 147.70573 | 37471 ft | 468 kts | 54° |
| 2026-04-24 11:47 | -35.75759 | 147.76968 | 37474 ft | 468 kts | 54° |
| 2026-04-24 11:47 | -35.71835 | 147.83356 | 37475 ft | 468 kts | 54° |
| 2026-04-24 11:48 | -35.67938 | 147.89690 | 37474 ft | 468 kts | 54° |
| 2026-04-24 11:48 | -35.64017 | 147.96053 | 37473 ft | 468 kts | 54° |
| 2026-04-24 11:49 | -35.60081 | 148.02426 | 37473 ft | 468 kts | 54° |
| 2026-04-24 11:49 | -35.56158 | 148.08768 | 37478 ft | 468 kts | 55° |
| 2026-04-24 11:50 | -35.52236 | 148.15099 | 37477 ft | 468 kts | 55° |
| 2026-04-24 11:50 | -35.48308 | 148.21426 | 37477 ft | 468 kts | 55° |
| 2026-04-24 11:51 | -35.44328 | 148.27733 | 37478 ft | 468 kts | 54° |
| 2026-04-24 11:51 | -35.40372 | 148.34042 | 37480 ft | 468 kts | 55° |
| 2026-04-24 11:52 | -35.36450 | 148.40370 | 37489 ft | 468 kts | 55° |
| 2026-04-24 11:52 | -35.32507 | 148.46713 | 37495 ft | 468 kts | 55° |
| 2026-04-24 11:53 | -35.28585 | 148.52989 | 37500 ft | 468 kts | 55° |
| 2026-04-24 11:53 | -35.24613 | 148.59323 | 37498 ft | 468 kts | 55° |
| 2026-04-24 11:54 | -35.20671 | 148.65593 | 37495 ft | 468 kts | 55° |
| 2026-04-24 11:54 | -35.16715 | 148.71872 | 37491 ft | 468 kts | 55° |
| 2026-04-24 11:55 | -35.12752 | 148.78151 | 37489 ft | 468 kts | 55° |
| 2026-04-24 11:55 | -35.08771 | 148.84447 | 37485 ft | 468 kts | 55° |
| 2026-04-24 11:56 | -35.04793 | 148.90729 | 37481 ft | 468 kts | 55° |
| 2026-04-24 11:56 | -35.00818 | 148.96992 | 37481 ft | 468 kts | 56° |
| 2026-04-24 11:57 | -34.96842 | 149.03247 | 37481 ft | 468 kts | 56° |
| 2026-04-24 11:57 | -34.92853 | 149.09511 | 37479 ft | 468 kts | 56° |
| 2026-04-24 11:58 | -34.88865 | 149.15764 | 37479 ft | 468 kts | 56° |
| 2026-04-24 11:58 | -34.84875 | 149.22009 | 37483 ft | 468 kts | 56° |
| 2026-04-24 11:59 | -34.80882 | 149.28250 | 37477 ft | 468 kts | 56° |
| 2026-04-24 11:59 | -34.76897 | 149.34465 | 37487 ft | 468 kts | 57° |
| 2026-04-24 12:00 | -34.74997 | 149.37601 | 37279 ft | 459 kts | 59° |
| 2026-04-24 12:00 | -34.73252 | 149.40852 | 36648 ft | 458 kts | 63° |
| 2026-04-24 12:00 | -34.71677 | 149.44220 | 36063 ft | 457 kts | 66° |
| 2026-04-24 12:00 | -34.70209 | 149.47591 | 35530 ft | 458 kts | 67° |
| 2026-04-24 12:01 | -34.68727 | 149.51009 | 35003 ft | 457 kts | 67° |
| 2026-04-24 12:01 | -34.67247 | 149.54417 | 34217 ft | 457 kts | 67° |
| 2026-04-24 12:01 | -34.65757 | 149.57844 | 33322 ft | 459 kts | 67° |
| 2026-04-24 12:01 | -34.64270 | 149.61258 | 32462 ft | 461 kts | 66° |
| 2026-04-24 12:02 | -34.62793 | 149.64638 | 31644 ft | 461 kts | 66° |
| 2026-04-24 12:02 | -34.61292 | 149.68066 | 30859 ft | 460 kts | 66° |
| 2026-04-24 12:02 | -34.59800 | 149.71466 | 30173 ft | 456 kts | 66° |
| 2026-04-24 12:02 | -34.58313 | 149.74855 | 29424 ft | 454 kts | 65° |
| 2026-04-24 12:03 | -34.56837 | 149.78220 | 28570 ft | 455 kts | 65° |
| 2026-04-24 12:03 | -34.55351 | 149.81606 | 27640 ft | 457 kts | 65° |
| 2026-04-24 12:03 | -34.53874 | 149.84966 | 26709 ft | 458 kts | 64° |
| 2026-04-24 12:03 | -34.52379 | 149.88354 | 26078 ft | 452 kts | 64° |
| 2026-04-24 12:04 | -34.50921 | 149.91655 | 25497 ft | 445 kts | 64° |
| 2026-04-24 12:04 | -34.49454 | 149.94974 | 24841 ft | 441 kts | 64° |
| 2026-04-24 12:04 | -34.48035 | 149.98181 | 24194 ft | 437 kts | 63° |
| 2026-04-24 12:04 | -34.46607 | 150.01407 | 23540 ft | 433 kts | 63° |
| 2026-04-24 12:05 | -34.45193 | 150.04596 | 22890 ft | 429 kts | 63° |
| 2026-04-24 12:05 | -34.43796 | 150.07745 | 22250 ft | 424 kts | 63° |
| 2026-04-24 12:05 | -34.42415 | 150.10855 | 21622 ft | 420 kts | 63° |
| 2026-04-24 12:05 | -34.41029 | 150.13972 | 21006 ft | 416 kts | 63° |
| 2026-04-24 12:06 | -34.39691 | 150.16978 | 20662 ft | 404 kts | 63° |
| 2026-04-24 12:06 | -34.38372 | 150.19940 | 20368 ft | 393 kts | 63° |
| 2026-04-24 12:06 | -34.37094 | 150.22810 | 19868 ft | 388 kts | 63° |
| 2026-04-24 12:06 | -34.35825 | 150.25659 | 19311 ft | 385 kts | 63° |
| 2026-04-24 12:07 | -34.34553 | 150.28516 | 18741 ft | 381 kts | 63° |
| 2026-04-24 12:07 | -34.33315 | 150.31291 | 18203 ft | 378 kts | 63° |
| 2026-04-24 12:07 | -34.32072 | 150.34073 | 17665 ft | 374 kts | 63° |
| 2026-04-24 12:07 | -34.30839 | 150.36827 | 17122 ft | 371 kts | 63° |
| 2026-04-24 12:08 | -34.29629 | 150.39528 | 16580 ft | 368 kts | 63° |
| 2026-04-24 12:08 | -34.28421 | 150.42224 | 16113 ft | 363 kts | 63° |
| 2026-04-24 12:08 | -34.27220 | 150.44908 | 15668 ft | 358 kts | 63° |
| 2026-04-24 12:08 | -34.26053 | 150.47519 | 15154 ft | 355 kts | 63° |
| 2026-04-24 12:09 | -34.24886 | 150.50130 | 14623 ft | 353 kts | 63° |
| 2026-04-24 12:09 | -34.23734 | 150.52705 | 14095 ft | 351 kts | 63° |
| 2026-04-24 12:09 | -34.22573 | 150.55299 | 13563 ft | 349 kts | 63° |
| 2026-04-24 12:09 | -34.21431 | 150.57848 | 13067 ft | 345 kts | 63° |
| 2026-04-24 12:10 | -34.20295 | 150.60384 | 12575 ft | 343 kts | 63° |
| 2026-04-24 12:10 | -34.19164 | 150.62903 | 12087 ft | 339 kts | 63° |
| 2026-04-24 12:10 | -34.18057 | 150.65369 | 11602 ft | 336 kts | 62° |
| 2026-04-24 12:11 | -34.15852 | 150.70270 | 10622 ft | 331 kts | 62° |
| 2026-04-24 12:11 | -34.14750 | 150.72717 | 10136 ft | 327 kts | 62° |
| 2026-04-24 12:11 | -34.13674 | 150.75107 | 9647 ft | 324 kts | 62° |
| 2026-04-24 12:11 | -34.12612 | 150.77464 | 9170 ft | 322 kts | 62° |
| 2026-04-24 12:12 | -34.11553 | 150.79813 | 8671 ft | 319 kts | 62° |
| 2026-04-24 12:12 | -34.10387 | 150.82089 | 8150 ft | 318 kts | 50° |
| 2026-04-24 12:12 | -34.08653 | 150.83708 | 7749 ft | 316 kts | 28° |
| 2026-04-24 12:12 | -34.06654 | 150.84776 | 7582 ft | 308 kts | 24° |
| 2026-04-24 12:13 | -34.04722 | 150.85698 | 7418 ft | 296 kts | 23° |
| 2026-04-24 12:13 | -34.02832 | 150.86580 | 7237 ft | 284 kts | 22° |
| 2026-04-24 12:13 | -34.01031 | 150.87418 | 7061 ft | 274 kts | 22° |
| 2026-04-24 12:13 | -33.99268 | 150.88240 | 6836 ft | 266 kts | 22° |
| 2026-04-24 12:14 | -33.97563 | 150.89037 | 6512 ft | 263 kts | 22° |
| 2026-04-24 12:14 | -33.95857 | 150.89838 | 6151 ft | 261 kts | 22° |
| 2026-04-24 12:14 | -33.94169 | 150.90633 | 6008 ft | 259 kts | 22° |
| 2026-04-24 12:14 | -33.92495 | 150.91420 | 6003 ft | 260 kts | 22° |
| 2026-04-24 12:15 | -33.90809 | 150.92212 | 5824 ft | 257 kts | 22° |
| 2026-04-24 12:15 | -33.89151 | 150.92990 | 5420 ft | 258 kts | 22° |
| 2026-04-24 12:15 | -33.87477 | 150.93784 | 5038 ft | 257 kts | 22° |
| 2026-04-24 12:15 | -33.85822 | 150.94565 | 4693 ft | 256 kts | 22° |
| 2026-04-24 12:16 | -33.84176 | 150.95343 | 4361 ft | 253 kts | 22° |
| 2026-04-24 12:16 | -33.82556 | 150.96109 | 4189 ft | 244 kts | 22° |
| 2026-04-24 12:16 | -33.81018 | 150.96835 | 4033 ft | 235 kts | 22° |
| 2026-04-24 12:16 | -33.79518 | 150.97540 | 3995 ft | 221 kts | 22° |
| 2026-04-24 12:17 | -33.78126 | 150.98190 | 3995 ft | 212 kts | 22° |
| 2026-04-24 12:17 | -33.76734 | 150.98833 | 4001 ft | 213 kts | 22° |
| 2026-04-24 12:17 | -33.75389 | 150.99451 | 3986 ft | 202 kts | 22° |
| 2026-04-24 12:17 | -33.74106 | 151.00037 | 3985 ft | 192 kts | 22° |
| 2026-04-24 12:18 | -33.72863 | 151.00601 | 3994 ft | 192 kts | 22° |
| 2026-04-24 12:18 | -33.71657 | 151.01291 | 3982 ft | 191 kts | 42° |
| 2026-04-24 12:18 | -33.70919 | 151.02579 | 3993 ft | 191 kts | 67° |
| 2026-04-24 12:18 | -33.70471 | 151.04068 | 3902 ft | 190 kts | 72° |
| 2026-04-24 12:19 | -33.70302 | 151.05633 | 3776 ft | 192 kts | 101° |
| 2026-04-24 12:19 | -33.70935 | 151.07047 | 3680 ft | 197 kts | 130° |
| 2026-04-24 12:19 | -33.71952 | 151.08188 | 3626 ft | 198 kts | 136° |
| 2026-04-24 12:19 | -33.72996 | 151.09216 | 3651 ft | 193 kts | 137° |
| 2026-04-24 12:20 | -33.74042 | 151.10223 | 3574 ft | 192 kts | 138° |
| 2026-04-24 12:20 | -33.75075 | 151.11218 | 3504 ft | 191 kts | 138° |
| 2026-04-24 12:20 | -33.76143 | 151.12187 | 3341 ft | 192 kts | 143° |
| 2026-04-24 12:20 | -33.77336 | 151.12918 | 3135 ft | 194 kts | 155° |
| 2026-04-24 12:21 | -33.78634 | 151.13419 | 2869 ft | 194 kts | 162° |
| 2026-04-24 12:21 | -33.79946 | 151.13794 | 2611 ft | 194 kts | 165° |
| 2026-04-24 12:21 | -33.81260 | 151.14130 | 2347 ft | 190 kts | 165° |
| 2026-04-24 12:21 | -33.82544 | 151.14455 | 2095 ft | 186 kts | 165° |
| 2026-04-24 12:22 | -33.83769 | 151.14771 | 1849 ft | 180 kts | 165° |
| 2026-04-24 12:22 | -33.85005 | 151.15093 | 1612 ft | 180 kts | 165° |
| 2026-04-24 12:22 | -33.86223 | 151.15413 | 1379 ft | 178 kts | 166° |
| 2026-04-24 12:22 | -33.87430 | 151.15727 | 1167 ft | 175 kts | 167° |
| 2026-04-24 12:23 | -33.88573 | 151.16025 | 921 ft | 165 kts | 167° |
| 2026-04-24 12:23 | -33.89667 | 151.16310 | 694 ft | 154 kts | 168° |
| 2026-04-24 12:23 | -33.90680 | 151.16574 | 493 ft | 144 kts | 168° |
| 2026-04-24 12:23 | -33.91647 | 151.16826 | 320 ft | 142 kts | 169° |
| 2026-04-24 12:24 | -33.92609 | 151.17081 | 126 ft | 141 kts | 170° |
| 2026-04-24 12:24 | -33.93558 | 151.17322 | 16 ft | 130 kts | 171° |
| 2026-04-24 12:24 | -33.94313 | 151.17540 | 20 ft | 86 kts | 150° |
| 2026-04-24 12:24 | -33.94499 | 151.17796 | 25 ft | 3 kts | 2° |
| 2026-04-24 12:25 | -33.94479 | 151.17784 | 24 ft | 5 kts | 338° |
| 2026-04-24 12:25 | -33.94459 | 151.17776 | 23 ft | 0 kts | 346° |
| 2026-04-24 12:26 | -33.94452 | 151.17775 | 23 ft | 7 kts | 345° |
| 2026-04-24 12:26 | -33.94334 | 151.17737 | 20 ft | 20 kts | 345° |
| 2026-04-24 12:27 | -33.94184 | 151.17691 | 16 ft | 25 kts | 345° |
| 2026-04-24 12:27 | -33.93986 | 151.17635 | 9 ft | 32 kts | 349° |
| 2026-04-24 12:27 | -33.93759 | 151.17575 | 9 ft | 32 kts | 346° |
| 2026-04-24 12:27 | -33.93543 | 151.17519 | 9 ft | 30 kts | 348° |
| 2026-04-24 12:28 | -33.93349 | 151.17496 | 15 ft | 25 kts | 348° |
| 2026-04-24 12:28 | -33.93179 | 151.17453 | 19 ft | 23 kts | 348° |
| 2026-04-24 12:28 | -33.93020 | 151.17415 | 21 ft | 22 kts | 8° |
| 2026-04-24 12:28 | -33.92999 | 151.17557 | 21 ft | 19 kts | 103° |
| 2026-04-24 12:29 | -33.93032 | 151.17703 | 22 ft | 17 kts | 115° |
| 2026-04-24 12:29 | -33.93068 | 151.17842 | 22 ft | 16 kts | 99° |
| 2026-04-24 12:29 | -33.93100 | 151.17929 | 23 ft | 9 kts | 161° |
| 2026-04-24 12:29 | -33.93156 | 151.17914 | 23 ft | 0 kts | 192° |
| 2026-04-24 12:30 | -33.93157 | 151.17914 | 23 ft | 2 kts | 192° |
| 2026-04-24 12:30 | -33.93159 | 151.17914 | 23 ft | 0 kts | 192° |